Weather observations for the past three days for
Atwood-Rawlins County City-County Airport
Imperial (Metric)
Date Time (cdt) Wind (mph) Vis. (mi.) Weather Sky Cond. Temperature (ºF) Relative Humidity Wind Chill (°F) Heat Index (°F) Pressure Precipitation (in)
Air Dwpt 6 hour altimeter (in) sea level (mb) 1 hr 3 hr 6 hr
Max. Min.
10 15:55 S 8 10.00 Fair CLR 69.6 38.3 32% 30.27 0.0
10 15:35 S 7 10.00 Fair CLR 68.7 38.5 33% 30.28 0.0
10 15:15 Calm 10.00 Fair CLR 67.5 37.8 34% 30.28 0.0
10 14:55 S 10 10.00 Fair CLR 67.6 37.6 33% 30.29 0.0
10 14:35 S 8 10.00 Fair CLR 67.3 36.3 32% 30.3 0.0
10 14:15 S 9 G 17 10.00 Fair CLR 66.9 36 32% 30.3 0.0
10 13:55 Calm 10.00 Fair CLR 64.9 36 34% 30.31 0.0
10 13:35 S 8 10.00 Fair CLR 65.1 36.3 35% 30.31 0.0
10 13:15 S 3 10.00 Fair CLR 63.9 37.2 37% 30.32 0.0
10 12:55 SW 8 10.00 Fair CLR 63.5 38.8 63.7 50 40% 30.32 0.0
10 12:35 SW 6 10.00 Partly Cloudy SCT080 62.2 39.9 44% 30.33 0.0
10 12:15 S 8 10.00 Partly Cloudy SCT080 60.8 41.4 49% 30.33 0.0
10 11:55 SW 6 10.00 Mostly Cloudy BKN080 59.5 41.7 52% 30.34 0.0
10 11:35 SW 8 10.00 Overcast OVC080 57.4 42.6 58% 30.34 0.0
10 11:15 S 8 10.00 Overcast OVC070 57 41.7 57% 30.34 0.0
10 10:55 SW 9 10.00 Overcast OVC070 57.2 43.5 60% 30.34 0.0
10 10:35 SW 9 10.00 Overcast OVC070 56.3 43.9 63% 30.33 0.0
10 10:15 SW 9 10.00 Overcast OVC070 53.6 42.1 65% 30.33 0.0
10 09:55 SW 12 10.00 Overcast OVC060 53.6 44.6 72% 30.33 0.0
10 09:35 SW 8 10.00 Overcast OVC060 54 45.5 73% 30.32 0.0
10 09:15 SW 5 10.00 Overcast BKN060 OVC070 53.2 44.6 73% 30.32 0.0
10 08:55 S 3 10.00 Overcast SCT060 BKN070 OVC080 52.2 44.8 76% 30.31 0.0
10 08:35 SW 3 10.00 Overcast OVC070 52.2 45.1 77% 30.31 0.0
10 08:15 SW 3 10.00 Light Rain BKN070 52.2 44.4 75% 30.3 0.0
10 07:55 Calm 10.00 Overcast OVC070 51.6 44.2 76% 30.29 0.0
10 07:35 NW 6 10.00 Overcast SCT055 OVC070 50.9 44.2 78% 30.28 0.0
10 07:15 NW 8 10.00 Overcast OVC070 50.4 43 76% 30.27 0.0
10 06:55 NW 6 10.00 Mostly Cloudy BKN070 BKN100 BKN120 49.8 42.4 54 49.1 76% 48 30.26 0.0
10 06:35 NW 5 10.00 Fair CLR 49.1 43.2 80% 48 30.25 0.0
10 06:15 NW 6 10.00 Partly Cloudy SCT070 SCT100 50 42.6 76% 48 30.25 0.0
10 05:55 N 7 10.00 Partly Cloudy SCT038 SCT050 SCT070 50 43.3 78% 48 30.25 0.0
10 05:35 N 6 10.00 Light Rain SCT038 SCT050 BKN075 51.1 43.5 75% 30.25 0.0
10 05:15 N 7 10.00 Mostly Cloudy BKN075 BKN100 51.4 44.1 76% 30.24 0.0
10 04:55 N 7 10.00 Overcast OVC075 51.8 44.4 76% 30.24 0.0
10 04:35 NE 6 10.00 Overcast OVC075 52 44.8 77% 30.22 0.0
10 04:15 N 6 10.00 Mostly Cloudy BKN075 BKN110 52 45.3 78% 30.22 0.0
10 03:55 N 5 10.00 Partly Cloudy SCT075 SCT110 52.2 45.1 77% 30.22 0.0
10 03:35 NW 6 10.00 Mostly Cloudy BKN075 52 46.6 82% 30.22 0.0
10 03:15 NW 6 10.00 Overcast BKN075 OVC085 52.7 46.6 80% 30.22 0.0
10 02:55 N 7 10.00 Mostly Cloudy BKN085 52.3 46 79% 30.2 0.0
10 02:35 N 8 10.00 Overcast OVC085 52.7 46.8 80% 30.2 0.0
10 02:15 N 8 10.00 Overcast BKN085 OVC100 53.6 46.4 77% 30.2 0.0
10 01:55 SE 7 10.00 Mostly Cloudy BKN100 53.6 45.5 74% 30.18 0.0
10 01:35 E 7 10.00 Partly Cloudy SCT100 53.6 45.1 73% 30.17 0.0
10 01:15 NE 8 10.00 Fair CLR 53.8 46 75% 30.17 0.0
10 00:55 NE 9 10.00 Partly Cloudy SCT028 SCT034 SCT055 54 46.8 74.3 54 77% 30.16 0.0
10 00:35 E 16 10.00 Light Rain SCT030 SCT037 OVC075 54.5 47.8 78% 30.14 0.0
10 00:15 Calm 10.00 Light Rain SCT028 SCT047 OVC075 55.2 48.2 77% 30.2 0.0
09 23:55 N 3 10.00 Rain SCT046 BKN060 OVC070 55.9 46.9 72% 30.2 0.0
09 23:35 N 8 10.00 Light Rain OVC070 57.2 46.6 68% 30.19 0.0
09 23:15 NE 12 10.00 Light Rain OVC080 59.2 43.7 57% 30.17 0.0
09 22:55 NE 14 10.00 Mostly Cloudy BKN090 BKN110 60.8 41 48% 30.15 0.0
09 22:35 NE 13 10.00 Partly Cloudy SCT110 60.8 41 48% 30.13 0.0
09 22:15 NE 13 10.00 Fair CLR 60.8 41 48% 30.11 0.0
09 21:55 NE 16 G 25 10.00 Fair CLR 61.3 40.5 46% 30.08 0.0
09 21:35 NE 20 G 23 10.00 Fair CLR 62.1 39 43% 30.04 0.0
09 21:15 NE 20 G 28 10.00 Fair CLR 63.3 38.3 40% 30.02 0.0
09 20:55 NE 20 G 25 10.00 Fair CLR 64.4 36.7 36% 30 0.0
09 20:35 NE 20 G 23 10.00 Fair CLR 66.9 34.7 30% 29.97 0.0
09 20:15 E 20 G 24 10.00 Fair CLR 68.7 34.5 28% 29.96 0.0
09 19:55 E 22 G 28 10.00 Fair and Breezy CLR 70.9 34.5 26% 29.95 0.0
09 19:35 NE 22 G 28 10.00 Fair and Breezy CLR 72.5 34.5 25% 29.93 0.0
09 19:15 NE 21 G 29 10.00 Fair and Breezy CLR 73.9 35.2 24% 29.93 0.0
09 18:55 NE 18 G 26 10.00 Fair CLR 72.5 35.8 82.2 72.5 26% 29.92 0.0
09 18:35 NE 18 G 25 10.00 Fair CLR 73.8 37 26% 29.92 0.0
09 18:15 NE 20 G 28 10.00 Fair CLR 75.7 37.8 25% 77 29.91 0.0
09 17:55 NE 14 G 22 10.00 Fair CLR 79.2 37.9 23% 78 29.9 0.0
09 17:35 NE 15 G 22 10.00 Fair CLR 80.2 38.7 23% 79 29.89 0.0
09 17:15 NE 15 G 20 10.00 Fair CLR 80.6 38.7 22% 79 29.89 0.0
09 16:55 NE 16 G 23 10.00 Fair CLR 80.6 38.8 22% 79 29.89 0.0
09 16:35 NE 15 G 20 10.00 Fair CLR 80.6 38.5 22% 79 29.89 0.0
09 16:15 NE 18 G 24 10.00 Fair CLR 81.3 39 22% 80 29.88 0.0
09 15:55 NE 16 G 25 10.00 Fair CLR 80.8 39 23% 79 29.88 0.0
09 15:35 N 15 G 21 10.00 Fair CLR 81.9 39.9 22% 80 29.87 0.0
09 15:15 N 17 10.00 Fair CLR 81 39.9 23% 79 29.87 0.0
09 14:55 N 13 G 21 10.00 Fair CLR 80.8 40.5 24% 79 29.87 0.0
09 14:35 N 15 G 22 10.00 Fair CLR 80.1 40.3 24% 79 29.87 0.0
09 14:15 NE 16 G 21 10.00 Fair CLR 79.3 41.4 26% 79 29.86 0.0
09 13:55 N 16 G 22 10.00 Fair CLR 79.5 41.2 26% 79 29.86 0.0
09 13:35 N 18 G 28 10.00 Fair CLR 79.9 41.7 26% 79 29.86 0.0
09 13:15 Calm 10.00 Fair CLR 79.5 37.8 22% 78 29.86 0.0
09 12:55 N 5 10.00 Fair CLR 78.8 38.5 79 48.9 24% 78 29.86 0.0
09 12:35 Calm 10.00 Fair CLR 77.4 37 23% 77 29.86 0.0
09 12:15 SW 7 10.00 Fair CLR 77.5 38.8 25% 78 29.87 0.0
09 11:55 SW 13 G 17 10.00 Fair CLR 77.5 39.6 26% 78 29.87 0.0
09 11:35 SW 14 G 22 10.00 Fair CLR 74.7 40.1 29% 29.89 0.0
09 11:15 SW 12 G 20 10.00 Fair CLR 74.7 39.4 28% 29.88 0.0
09 10:55 SW 15 G 23 10.00 Fair CLR 74.3 38.5 27% 29.88 0.0
09 10:35 SW 17 G 22 10.00 Fair CLR 74.8 39.7 28% 29.89 0.0
09 10:15 SW 16 G 21 10.00 Fair CLR 72.5 40.3 31% 29.9 0.0
09 09:55 Calm 10.00 Partly Cloudy SCT110 66.2 43.9 45% 29.9 0.0
09 09:35 S 5 10.00 Mostly Cloudy BKN110 62.1 45 54% 29.9 0.0
09 09:15 Calm 10.00 Mostly Cloudy BKN100 60.1 44.4 56% 29.91 0.0
09 08:55 SE 3 10.00 Mostly Cloudy BKN100 57.9 44.6 61% 29.92 0.0
09 08:35 E 5 10.00 Overcast OVC100 55.6 44.6 67% 29.92 0.0
09 08:15 Calm 10.00 Overcast OVC100 54.7 43.3 66% 29.92 0.0
09 07:55 Calm 10.00 Mostly Cloudy BKN100 52.7 44.6 74% 29.92 0.0
09 07:35 W 5 10.00 Partly Cloudy SCT080 SCT110 52.3 43 71% 29.91 0.0
09 07:15 Calm 10.00 Mostly Cloudy SCT080 BKN100 51.3 41.9 71% 29.9 0.0
09 06:55 W 6 10.00 Partly Cloudy SCT110 48.2 41 48.4 43.3 76% 46 29.9 0.0
09 06:35 SW 6 10.00 Fair CLR 48.2 41 76% 46 29.89 0.0
09 06:15 W 7 10.00 Fair CLR 47.8 40.1 75% 45 29.9 0.0
09 05:55 W 5 10.00 Fair CLR 45.7 39.2 78% 44 29.9 0.0
09 05:35 Calm 10.00 Fair CLR 45.7 39.2 78% 29.89 0.0
09 05:15 W 3 10.00 Fair CLR 45.1 38.7 78% 29.9 0.0
09 04:55 W 3 10.00 Partly Cloudy SCT120 46.9 39 74% 29.9 0.0
09 04:35 W 5 10.00 Partly Cloudy SCT110 46 39.4 78% 44 29.91 0.0
09 04:15 W 7 10.00 Partly Cloudy SCT110 45.7 39.6 79% 43 29.91 0.0
09 03:55 W 7 10.00 Fair CLR 44.4 38.7 80% 41 29.9 0.0
09 03:35 W 5 10.00 Fair CLR 45.1 38.5 78% 43 29.9 0.0
09 03:15 W 3 10.00 Fair CLR 45.1 38.5 78% 29.9 0.0
09 02:55 W 3 10.00 Fair CLR 46 38.5 75% 29.91 0.0
09 02:35 W 3 10.00 Fair CLR 45.7 38.7 77% 29.91 0.0
09 02:15 W 6 10.00 Fair CLR 47.7 38.3 70% 45 29.92 0.0
09 01:55 W 5 10.00 Fair CLR 48.2 38.7 70% 47 29.92 0.0
09 01:35 W 3 10.00 Fair CLR 46.4 39.2 76% 29.93 0.0
09 01:15 W 5 10.00 Fair CLR 47.1 39 74% 46 29.93 0.0
09 00:55 W 5 10.00 Fair CLR 47.3 39.2 74.3 46.8 74% 46 29.93 0.0
09 00:35 W 3 10.00 Fair CLR 47.3 39.4 74% 29.93 0.0
09 00:15 W 5 10.00 Fair CLR 48 39.2 72% 47 29.94 0.0
08 23:55 W 5 10.00 Fair CLR 47.3 39.2 74% 46 29.94 0.0
08 23:35 W 6 10.00 Fair CLR 50.5 38.7 64% 29.94 0.0
08 23:15 W 5 10.00 Fair CLR 52.2 38.3 59% 29.94 0.0
08 22:55 W 5 10.00 Fair CLR 52.7 37.6 57% 29.94 0.0
08 22:35 W 3 10.00 Fair CLR 54.7 35.6 49% 29.94 0.0
08 22:15 Calm 10.00 Fair CLR 53.1 37 55% 29.93 0.0
08 21:55 N 3 10.00 Fair CLR 64.4 31.6 29% 29.93 0.0
08 21:35 N 8 10.00 Fair CLR 62.1 32.4 33% 29.92 0.0
08 21:15 N 8 10.00 Fair CLR 62.6 32.7 33% 29.92 0.0
08 20:55 N 10 10.00 Fair CLR 61.5 34 36% 29.91 0.0
08 20:35 N 9 10.00 Fair CLR 64.6 34.7 33% 29.91 0.0
08 20:15 N 6 10.00 Fair CLR 70.2 32.2 25% 29.9 0.0
08 19:55 NW 6 10.00 Fair CLR 72 31.3 22% 29.9 0.0
08 19:35 NW 9 10.00 Fair CLR 72.7 30.9 21% 29.9 0.0
08 19:15 NW 12 G 16 10.00 Fair CLR 73.6 31.5 21% 29.9 0.0
08 18:55 NW 9 10.00 Partly Cloudy SCT110 73.6 32 77.4 70.3 22% 29.9 0.0
08 18:35 NW 12 G 17 10.00 Partly Cloudy SCT100 75.2 31.1 20% 76 29.9 0.0
08 17:55 NW 9 10.00 Partly Cloudy SCT110 75.7 31.8 20% 76 29.91 0.0
08 17:35 N 14 G 17 10.00 Mostly Cloudy BKN100 76.8 32 19% 77 29.9 0.0
08 17:15 N 13 10.00 Partly Cloudy SCT100 75.4 31.8 20% 76 29.91 0.0
08 16:55 W 8 G 17 10.00 Partly Cloudy SCT100 75.9 31.8 20% 76 29.91 0.0
08 16:35 NW 13 G 18 10.00 Partly Cloudy SCT095 74.5 31.8 21% 29.92 0.0
08 16:15 N 12 G 23 10.00 Partly Cloudy SCT095 75.9 30.6 19% 76 29.92 0.0
08 15:55 W 12 G 20 10.00 Partly Cloudy SCT095 75.9 30.9 19% 76 29.93 0.0
08 15:35 NW 9 G 20 10.00 Mostly Cloudy BKN095 72.5 31.1 22% 29.93 0.0
08 15:15 N 13 G 16 10.00 Overcast OVC095 72.3 32.2 23% 29.93 0.0
08 14:35 N 14 G 22 10.00 Partly Cloudy SCT085 74.5 31.8 21% 29.94 0.0
08 14:15 N 8 G 17 10.00 Partly Cloudy SCT085 72.1 32.2 23% 29.95 0.0
08 13:55 N 16 G 21 10.00 Partly Cloudy SCT080 72.7 34 24% 29.95 0.0
08 13:35 N 12 G 18 10.00 Partly Cloudy SCT070 SCT080 70.7 34.3 26% 29.96 0.0
08 13:15 N 10 G 25 10.00 Partly Cloudy SCT070 71.8 35.8 27% 29.96 0.0
08 12:35 N 14 G 26 10.00 Fair CLR 69.8 32.2 25% 29.97 0.0
08 12:15 N 9 G 21 10.00 Fair CLR 69.4 32.7 26% 29.97 0.0
08 11:55 N 10 G 17 10.00 Fair CLR 69.1 31.8 25% 29.98 0.0
08 11:35 N 10 10.00 Fair CLR 67.5 28.9 24% 29.98 0.0
08 11:15 NW 12 G 16 10.00 Fair CLR 66 30.2 26% 29.98 0.0
08 10:55 N 12 G 17 10.00 Partly Cloudy SCT100 SCT120 64 33.1 32% 29.98 0.0
08 10:35 NW 12 G 17 10.00 Partly Cloudy SCT100 65.1 34.2 32% 29.98 0.0
08 10:15 NW 13 10.00 Partly Cloudy SCT110 61.9 36.7 39% 29.98 0.0
08 09:55 N 14 G 20 10.00 Fair CLR 59.2 37.4 44% 29.97 0.0
08 09:35 NW 10 10.00 Fair CLR 58.1 42.1 55% 29.97 0.0
08 09:15 NW 14 G 17 10.00 Fair CLR 56.5 42.3 59% 29.97 0.0
08 08:35 NW 15 10.00 Fair CLR 54.9 42.6 64% 29.96 0.0
08 08:15 NW 15 10.00 Fair CLR 55 42.8 64% 29.95 0.0
08 07:55 NW 15 10.00 Fair CLR 54.9 44.4 68% 29.94 0.0
08 07:35 NW 18 10.00 Partly Cloudy SCT075 54.3 44.6 70% 29.93 0.0
08 07:15 NW 13 10.00 Partly Cloudy SCT085 SCT095 55 45.3 70% 29.92 0.0
08 06:55 NW 9 10.00 Overcast SCT075 OVC095 56.8 45 60.4 56.3 65% 29.91 0.0
08 06:35 NW 7 10.00 Overcast OVC095 57 45 64% 29.91 0.0
08 06:15 NW 7 10.00 Overcast OVC095 56.7 44.8 65% 29.91 0.0
08 05:55 NW 8 10.00 Mostly Cloudy BKN095 BKN120 56.8 44.8 64% 29.91 0.0
08 05:35 NW 7 10.00 Partly Cloudy SCT120 56.3 44.8 65% 29.9 0.0
08 05:15 NW 9 10.00 Fair CLR 56.7 44.6 64% 29.91 0.0
08 04:55 NW 9 10.00 Fair CLR 57.2 44.2 62% 29.91 0.0
08 04:35 W 9 10.00 Fair CLR 57.7 44.2 61% 29.92 0.0
08 04:15 W 10 10.00 Partly Cloudy SCT075 58.1 44.2 60% 29.92 0.0
08 03:55 SW 9 10.00 Mostly Cloudy BKN080 57.9 43.9 60% 29.92 0.0
08 03:35 W 6 10.00 Mostly Cloudy SCT080 BKN090 BKN110 57.4 44.1 61% 29.93 0.0
08 03:15 W 8 10.00 Partly Cloudy SCT110 59 42.8 55% 29.93 0.0
08 02:55 SW 7 10.00 Partly Cloudy SCT120 59.5 42.1 53% 29.92 0.0
08 02:35 W 12 10.00 Partly Cloudy SCT120 58.1 43 57% 29.92 0.0
08 02:15 W 8 10.00 Partly Cloudy SCT100 57.7 43 58% 29.92 0.0
08 01:55 NW 10 10.00 Mostly Cloudy BKN100 59 42.8 55% 29.92 0.0
08 01:35 NW 8 10.00 Mostly Cloudy SCT047 SCT070 BKN100 58.8 43 56% 29.9 0.0
08 01:15 NW 6 10.00 Mostly Cloudy BKN100 58.3 43.3 58% 29.91 0.0
08 00:55 Calm 10.00 Mostly Cloudy SCT085 BKN100 58.3 43.7 73.2 56.5 59% 29.91 0.0
08 00:35 N 8 10.00 Partly Cloudy SCT110 59.2 42.8 55% 29.9 0.0
08 00:15 Calm 10.00 Fair CLR 58.1 43 57% 29.91 0.0
07 23:55 W 7 10.00 Partly Cloudy SCT110 57.7 42.4 57% 29.91 0.0
07 23:35 SW 5 10.00 Mostly Cloudy BKN110 56.5 43.2 61% 29.92 0.0
07 23:15 NW 6 10.00 Mostly Cloudy BKN120 58.6 42.8 56% 29.91 0.0
07 22:55 NW 10 10.00 Mostly Cloudy BKN120 58.5 42.3 55% 29.91 0.0
07 22:35 Calm 10.00 Fair CLR 58.5 41.9 54% 29.9 0.0
07 22:15 NW 7 10.00 Fair CLR 61 40.8 48% 29.9 0.0
07 21:55 NW 10 G 16 10.00 Partly Cloudy SCT100 62.4 39.9 44% 29.91 0.0
07 21:35 Calm 10.00 Partly Cloudy SCT110 63 39.2 42% 29.89 0.0
07 21:15 W 3 10.00 Partly Cloudy SCT110 62.2 41.9 47% 29.89 0.0
07 20:55 NW 6 10.00 Fair CLR 64.4 40.3 41% 29.88 0.0
07 20:35 NW 5 10.00 Fair CLR 65.7 40.6 40% 29.88 0.0
07 20:15 NW 3 10.00 Fair CLR 67.3 39.2 36% 29.87 0.0
07 19:55 NW 6 10.00 Partly Cloudy SCT110 67.6 38.1 34% 29.87 0.0
07 19:35 NW 8 10.00 Mostly Cloudy BKN110 71.4 36.9 28% 29.87 0.0
07 19:15 NW 8 10.00 Mostly Cloudy BKN110 72 37.2 28% 29.87 0.0
07 18:55 NW 10 G 16 10.00 Partly Cloudy SCT120 72.5 35.1 77.2 70.9 25% 29.87 0.0
07 18:35 W 13 G 18 10.00 Fair CLR 73.2 34.5 24% 29.87 0.0
07 18:15 NW 10 10.00 Fair CLR 73.8 34 23% 29.87 0.0
07 17:55 NW 10 10.00 Partly Cloudy SCT120 75.2 33.8 22% 76 29.87 0.0
07 17:35 NW 9 G 18 10.00 Mostly Cloudy SCT090 BKN120 76.6 34.3 21% 77 29.87 0.0
07 17:15 NW 16 10.00 Partly Cloudy SCT090 74.3 34.2 23% 29.88 0.0
07 16:55 NW 9 10.00 Partly Cloudy SCT100 74.8 33.4 22% 29.88 0.0
07 16:35 NW 14 10.00 Overcast OVC100 72.7 33.1 23% 29.89 0.0
07 16:15 W 12 10.00 Mostly Cloudy BKN100 73.6 33.1 23% 29.89 0.0
Date Time (cdt) Wind (mph) Vis. (mi.) Weather Sky Cond. Air Dwpt Max. Min. Relative Humidity Wind Chill (°F) Heat Index (°F) altimeter (in) sea level (mb) 1 hr 3 hr 6 hr
6 hour
Temperature (ºF) Pressure Precipitation (in)